Accueil
METAR-TAF:

METAR-TAF

Aéroports :

Koné, Nouvelle-Calédonie

Aérodrome de Koné

latitude: 21-03-12S, longitude: 164-50-18E, altitude: 7 m

METAR: absent

Heure: 21:26 (10:26 UTC)

Prévision

Le bulletin a été fait il y a 5 heures et 26 minutes, à 05:00 UTC
Prévision valable du 21 à 06 UTC au 22 à 06 UTC
Vent 6 kt de est/nord-est
Visibilité 10 km ou plus
Quelques nuages à une hauteur de 5000 ft
Nuages fragmentés à une hauteur de 8000 ft
Probabilité 40% :
Temporairement
du 22 à 00 UTC au 22 à 06 UTC
Vent 10 kt de nord-est avec des rafales jusqu'à 20 kt
Quelques nuages à une hauteur de 2000 ft, Cumulus congestus.

TAF: NWWD 210500Z 2106/2206 06006KT 9999 FEW050 BKN080 PROB40 TEMPO 2200/2206 04010G20KT FEW020TCU

Observations et prévisions météorologiques de plus de 4000 aéroports (messages METAR et TAF).

Les stations disponibles sont représentées par des disques jaunes et rouges sur la carte.

Passer la souris dessus pour voir le nom de la station.

Cliquer dessus pour voir les observations et prévisions météorologiques.

Pour changer de carte: cliquez sur les boutons verts avec une croix noire pour zoomer, sur le bouton vert avec un tiret pour effectuer un zoom arrière, ou sur les flèches vertes pour les cartes adjacentes.


METAR-TAF: